sensor_id;sensor_type;location;lat;lon;timestamp;temperature;humidity
34434;DHT22;34290;48.562;13.384;2022-08-01T00:02:17;17.90;99.90
34434;DHT22;34290;48.562;13.384;2022-08-01T00:04:46;18.00;99.90
34434;DHT22;34290;48.562;13.384;2022-08-01T00:07:14;17.90;99.90
34434;DHT22;34290;48.562;13.384;2022-08-01T00:09:41;17.90;99.90
34434;DHT22;34290;48.562;13.384;2022-08-01T00:12:08;17.90;99.90
34434;DHT22;34290;48.562;13.384;2022-08-01T00:14:36;17.90;99.90
34434;DHT22;34290;48.562;13.384;2022-08-01T00:17:03;17.90;99.90
34434;DHT22;34290;48.562;13.384;2022-08-01T00:19:30;17.90;99.90
34434;DHT22;34290;48.562;13.384;2022-08-01T00:21:58;17.90;99.90
34434;DHT22;34290;48.562;13.384;2022-08-01T00:24:25;17.90;99.90
34434;DHT22;34290;48.562;13.384;2022-08-01T00:26:52;17.80;99.90
34434;DHT22;34290;48.562;13.384;2022-08-01T00:29:19;17.80;99.90
34434;DHT22;34290;48.562;13.384;2022-08-01T00:31:46;17.80;99.90
34434;DHT22;34290;48.562;13.384;2022-08-01T00:34:13;17.80;99.90
34434;DHT22;34290;48.562;13.384;2022-08-01T00:36:40;17.70;99.90
34434;DHT22;34290;48.562;13.384;2022-08-01T00:39:09;16.40;99.90
34434;DHT22;34290;48.562;13.384;2022-08-01T00:41:36;17.60;99.90
34434;DHT22;34290;48.562;13.384;2022-08-01T00:44:04;17.60;99.90
34434;DHT22;34290;48.562;13.384;2022-08-01T00:46:32;17.60;99.90
34434;DHT22;34290;48.562;13.384;2022-08-01T00:49:00;17.60;99.90
34434;DHT22;34290;48.562;13.384;2022-08-01T00:51:28;17.60;99.90
34434;DHT22;34290;48.562;13.384;2022-08-01T00:53:55;17.60;99.90
34434;DHT22;34290;48.562;13.384;2022-08-01T00:56:25;17.60;99.90
34434;DHT22;34290;48.562;13.384;2022-08-01T00:58:52;17.60;99.90
34434;DHT22;34290;48.562;13.384;2022-08-01T01:01:20;17.60;99.90
34434;DHT22;34290;48.562;13.384;2022-08-01T01:03:47;17.60;99.90
34434;DHT22;34290;48.562;13.384;2022-08-01T01:06:39;17.60;99.90
34434;DHT22;34290;48.562;13.384;2022-08-01T01:09:24;17.50;99.90
34434;DHT22;34290;48.562;13.384;2022-08-01T01:12:06;17.50;99.90
34434;DHT22;34290;48.562;13.384;2022-08-01T01:14:39;17.50;99.90
34434;DHT22;34290;48.562;13.384;2022-08-01T01:17:11;17.50;99.90
34434;DHT22;34290;48.562;13.384;2022-08-01T01:19:44;17.50;99.90
34434;DHT22;34290;48.562;13.384;2022-08-01T01:22:24;17.40;99.90
34434;DHT22;34290;48.562;13.384;2022-08-01T01:25:17;17.20;99.90
34434;DHT22;34290;48.562;13.384;2022-08-01T01:27:54;17.30;99.90
34434;DHT22;34290;48.562;13.384;2022-08-01T01:30:29;17.30;99.90
34434;DHT22;34290;48.562;13.384;2022-08-01T01:33:01;17.30;99.90
34434;DHT22;34290;48.562;13.384;2022-08-01T01:35:31;17.30;99.90
34434;DHT22;34290;48.562;13.384;2022-08-01T01:38:04;17.30;99.90
34434;DHT22;34290;48.562;13.384;2022-08-01T01:40:31;17.20;99.90
34434;DHT22;34290;48.562;13.384;2022-08-01T01:43:00;17.20;99.90
34434;DHT22;34290;48.562;13.384;2022-08-01T01:45:28;17.20;99.90
34434;DHT22;34290;48.562;13.384;2022-08-01T01:47:57;17.20;99.90
34434;DHT22;34290;48.562;13.384;2022-08-01T01:50:26;17.10;99.90
34434;DHT22;34290;48.562;13.384;2022-08-01T01:52:54;17.10;99.90
34434;DHT22;34290;48.562;13.384;2022-08-01T01:55:24;17.10;99.90
34434;DHT22;34290;48.562;13.384;2022-08-01T01:57:52;17.10;99.90
34434;DHT22;34290;48.562;13.384;2022-08-01T02:00:21;17.00;99.90
34434;DHT22;34290;48.562;13.384;2022-08-01T02:02:50;17.10;99.90
34434;DHT22;34290;48.562;13.384;2022-08-01T02:05:19;17.10;99.90
34434;DHT22;34290;48.562;13.384;2022-08-01T02:07:47;17.10;99.90
34434;DHT22;34290;48.562;13.384;2022-08-01T02:10:16;17.00;99.90
34434;DHT22;34290;48.562;13.384;2022-08-01T02:12:44;17.00;99.90
34434;DHT22;34290;48.562;13.384;2022-08-01T02:15:14;17.10;99.90
34434;DHT22;34290;48.562;13.384;2022-08-01T02:17:45;17.10;99.90
34434;DHT22;34290;48.562;13.384;2022-08-01T02:20:16;17.00;99.90
34434;DHT22;34290;48.562;13.384;2022-08-01T02:22:47;17.00;99.90
34434;DHT22;34290;48.562;13.384;2022-08-01T02:25:19;17.00;99.90
34434;DHT22;34290;48.562;13.384;2022-08-01T02:27:52;17.00;99.90
34434;DHT22;34290;48.562;13.384;2022-08-01T02:30:23;16.90;99.90
34434;DHT22;34290;48.562;13.384;2022-08-01T02:32:56;16.90;99.90
34434;DHT22;34290;48.562;13.384;2022-08-01T02:35:30;17.00;99.90
34434;DHT22;34290;48.562;13.384;2022-08-01T02:38:00;17.00;99.90
34434;DHT22;34290;48.562;13.384;2022-08-01T02:40:31;17.00;99.90
34434;DHT22;34290;48.562;13.384;2022-08-01T02:42:59;17.00;99.90
34434;DHT22;34290;48.562;13.384;2022-08-01T02:45:28;17.00;99.90
34434;DHT22;34290;48.562;13.384;2022-08-01T02:48:00;17.00;99.90
34434;DHT22;34290;48.562;13.384;2022-08-01T02:50:32;16.90;99.90
34434;DHT22;34290;48.562;13.384;2022-08-01T02:53:01;16.90;99.90
34434;DHT22;34290;48.562;13.384;2022-08-01T02:55:29;16.90;99.90
34434;DHT22;34290;48.562;13.384;2022-08-01T02:57:58;16.90;99.90
34434;DHT22;34290;48.562;13.384;2022-08-01T03:00:28;16.80;99.90
34434;DHT22;34290;48.562;13.384;2022-08-01T03:02:57;16.80;99.90
34434;DHT22;34290;48.562;13.384;2022-08-01T03:05:26;16.70;99.90
34434;DHT22;34290;48.562;13.384;2022-08-01T03:07:56;16.60;99.90
34434;DHT22;34290;48.562;13.384;2022-08-01T03:10:24;16.20;99.90
34434;DHT22;34290;48.562;13.384;2022-08-01T03:12:54;16.40;99.90
34434;DHT22;34290;48.562;13.384;2022-08-01T03:15:23;16.40;99.90
34434;DHT22;34290;48.562;13.384;2022-08-01T03:17:53;16.30;99.90
34434;DHT22;34290;48.562;13.384;2022-08-01T03:20:22;16.40;99.90
34434;DHT22;34290;48.562;13.384;2022-08-01T03:22:55;16.30;99.90
34434;DHT22;34290;48.562;13.384;2022-08-01T03:25:24;16.40;99.90
34434;DHT22;34290;48.562;13.384;2022-08-01T03:27:55;16.30;99.90
34434;DHT22;34290;48.562;13.384;2022-08-01T03:30:24;16.30;99.90
34434;DHT22;34290;48.562;13.384;2022-08-01T03:32:51;16.20;99.90
34434;DHT22;34290;48.562;13.384;2022-08-01T03:35:19;16.20;99.90
34434;DHT22;34290;48.562;13.384;2022-08-01T03:37:52;16.20;99.90
34434;DHT22;34290;48.562;13.384;2022-08-01T03:40:23;16.30;99.90
34434;DHT22;34290;48.562;13.384;2022-08-01T03:42:58;16.20;99.90
34434;DHT22;34290;48.562;13.384;2022-08-01T03:45:28;16.30;99.90
34434;DHT22;34290;48.562;13.384;2022-08-01T03:48:01;16.30;99.90
34434;DHT22;34290;48.562;13.384;2022-08-01T03:50:29;16.30;99.90
34434;DHT22;34290;48.562;13.384;2022-08-01T03:53:00;16.30;99.90
34434;DHT22;34290;48.562;13.384;2022-08-01T03:55:31;16.40;99.90
34434;DHT22;34290;48.562;13.384;2022-08-01T03:58:00;16.40;99.90
34434;DHT22;34290;48.562;13.384;2022-08-01T04:00:28;16.50;99.90
34434;DHT22;34290;48.562;13.384;2022-08-01T04:02:55;16.50;99.90
34434;DHT22;34290;48.562;13.384;2022-08-01T04:05:24;16.50;99.90
34434;DHT22;34290;48.562;13.384;2022-08-01T04:07:52;16.50;99.90
34434;DHT22;34290;48.562;13.384;2022-08-01T04:10:21;16.60;99.90
34434;DHT22;34290;48.562;13.384;2022-08-01T04:12:51;16.60;99.90
34434;DHT22;34290;48.562;13.384;2022-08-01T04:15:18;16.70;99.90
34434;DHT22;34290;48.562;13.384;2022-08-01T04:17:47;16.70;99.90
34434;DHT22;34290;48.562;13.384;2022-08-01T04:20:14;16.70;99.90
34434;DHT22;34290;48.562;13.384;2022-08-01T04:22:42;16.60;99.90
34434;DHT22;34290;48.562;13.384;2022-08-01T04:25:12;16.60;99.90
34434;DHT22;34290;48.562;13.384;2022-08-01T04:27:43;16.60;99.90
34434;DHT22;34290;48.562;13.384;2022-08-01T04:30:13;16.60;99.90
34434;DHT22;34290;48.562;13.384;2022-08-01T04:32:43;16.60;99.90
34434;DHT22;34290;48.562;13.384;2022-08-01T04:35:13;16.60;99.90
34434;DHT22;34290;48.562;13.384;2022-08-01T04:37:44;16.60;99.90
34434;DHT22;34290;48.562;13.384;2022-08-01T04:40:14;16.60;99.90
34434;DHT22;34290;48.562;13.384;2022-08-01T04:42:42;16.50;99.90
34434;DHT22;34290;48.562;13.384;2022-08-01T04:45:10;16.50;99.90
34434;DHT22;34290;48.562;13.384;2022-08-01T04:47:42;16.50;99.90
34434;DHT22;34290;48.562;13.384;2022-08-01T04:50:10;16.50;99.90
34434;DHT22;34290;48.562;13.384;2022-08-01T04:52:38;16.60;99.90
34434;DHT22;34290;48.562;13.384;2022-08-01T04:55:08;13.50;99.90
34434;DHT22;34290;48.562;13.384;2022-08-01T04:57:39;16.80;99.90
34434;DHT22;34290;48.562;13.384;2022-08-01T05:00:07;17.00;99.90
34434;DHT22;34290;48.562;13.384;2022-08-01T05:02:36;17.10;99.90
34434;DHT22;34290;48.562;13.384;2022-08-01T05:05:06;17.30;99.90
34434;DHT22;34290;48.562;13.384;2022-08-01T05:07:33;17.40;99.90
34434;DHT22;34290;48.562;13.384;2022-08-01T05:10:02;17.50;99.90
34434;DHT22;34290;48.562;13.384;2022-08-01T05:12:29;17.50;99.90
34434;DHT22;34290;48.562;13.384;2022-08-01T05:14:57;17.60;99.90
34434;DHT22;34290;48.562;13.384;2022-08-01T05:17:24;17.70;99.90
34434;DHT22;34290;48.562;13.384;2022-08-01T05:19:51;17.70;99.90
34434;DHT22;34290;48.562;13.384;2022-08-01T05:22:20;17.80;99.90
34434;DHT22;34290;48.562;13.384;2022-08-01T05:24:48;17.90;99.90
34434;DHT22;34290;48.562;13.384;2022-08-01T05:27:15;18.00;99.90
34434;DHT22;34290;48.562;13.384;2022-08-01T05:29:42;18.10;99.90
34434;DHT22;34290;48.562;13.384;2022-08-01T05:32:09;18.20;99.90
34434;DHT22;34290;48.562;13.384;2022-08-01T05:34:36;17.00;99.90
34434;DHT22;34290;48.562;13.384;2022-08-01T05:37:03;18.40;99.90
34434;DHT22;34290;48.562;13.384;2022-08-01T05:39:32;18.30;99.90
34434;DHT22;34290;48.562;13.384;2022-08-01T05:41:59;18.30;99.90
34434;DHT22;34290;48.562;13.384;2022-08-01T05:44:26;18.30;99.90
34434;DHT22;34290;48.562;13.384;2022-08-01T05:46:53;18.30;99.90
34434;DHT22;34290;48.562;13.384;2022-08-01T05:49:20;18.30;99.90
34434;DHT22;34290;48.562;13.384;2022-08-01T05:51:47;18.50;99.90
34434;DHT22;34290;48.562;13.384;2022-08-01T05:54:14;18.50;99.90
34434;DHT22;34290;48.562;13.384;2022-08-01T05:56:42;19.10;99.90
34434;DHT22;34290;48.562;13.384;2022-08-01T05:59:09;19.20;99.90
34434;DHT22;34290;48.562;13.384;2022-08-01T06:01:37;19.70;99.90
34434;DHT22;34290;48.562;13.384;2022-08-01T06:04:04;20.00;99.90
34434;DHT22;34290;48.562;13.384;2022-08-01T06:06:31;20.50;99.90
34434;DHT22;34290;48.562;13.384;2022-08-01T06:08:58;21.00;99.90
34434;DHT22;34290;48.562;13.384;2022-08-01T06:11:25;21.50;99.90
34434;DHT22;34290;48.562;13.384;2022-08-01T06:13:53;21.50;99.90
34434;DHT22;34290;48.562;13.384;2022-08-01T06:16:20;21.80;99.90
34434;DHT22;34290;48.562;13.384;2022-08-01T06:18:48;21.90;99.90
34434;DHT22;34290;48.562;13.384;2022-08-01T06:21:15;23.00;99.90
34434;DHT22;34290;48.562;13.384;2022-08-01T06:23:42;23.40;99.90
34434;DHT22;34290;48.562;13.384;2022-08-01T06:26:09;23.50;99.90
34434;DHT22;34290;48.562;13.384;2022-08-01T06:28:36;24.00;99.90
34434;DHT22;34290;48.562;13.384;2022-08-01T06:31:05;23.90;99.90
34434;DHT22;34290;48.562;13.384;2022-08-01T06:33:32;23.90;99.90
34434;DHT22;34290;48.562;13.384;2022-08-01T06:36:00;24.50;99.90
34434;DHT22;34290;48.562;13.384;2022-08-01T06:38:29;25.10;99.90
34434;DHT22;34290;48.562;13.384;2022-08-01T06:40:56;25.30;99.90
34434;DHT22;34290;48.562;13.384;2022-08-01T06:43:26;25.30;99.90
34434;DHT22;34290;48.562;13.384;2022-08-01T06:45:53;25.40;99.80
34434;DHT22;34290;48.562;13.384;2022-08-01T06:48:21;25.30;99.00
34434;DHT22;34290;48.562;13.384;2022-08-01T06:50:49;25.50;98.60
34434;DHT22;34290;48.562;13.384;2022-08-01T06:53:33;25.60;98.60
34434;DHT22;34290;48.562;13.384;2022-08-01T06:56:00;26.10;98.00
34434;DHT22;34290;48.562;13.384;2022-08-01T06:58:27;27.00;97.50
34434;DHT22;34290;48.562;13.384;2022-08-01T07:00:54;30.10;94.20
34434;DHT22;34290;48.562;13.384;2022-08-01T07:03:22;30.50;93.30
34434;DHT22;34290;48.562;13.384;2022-08-01T07:05:49;32.30;91.20
34434;DHT22;34290;48.562;13.384;2022-08-01T07:08:16;33.00;86.70
34434;DHT22;34290;48.562;13.384;2022-08-01T07:10:43;33.80;81.20
34434;DHT22;34290;48.562;13.384;2022-08-01T07:13:10;33.90;81.50
34434;DHT22;34290;48.562;13.384;2022-08-01T07:15:37;34.20;81.40
34434;DHT22;34290;48.562;13.384;2022-08-01T07:18:04;33.90;79.80
34434;DHT22;34290;48.562;13.384;2022-08-01T07:20:33;33.90;74.80
34434;DHT22;34290;48.562;13.384;2022-08-01T07:23:00;33.70;75.90
34434;DHT22;34290;48.562;13.384;2022-08-01T07:25:27;33.80;78.10
34434;DHT22;34290;48.562;13.384;2022-08-01T07:27:54;34.40;77.10
34434;DHT22;34290;48.562;13.384;2022-08-01T07:30:21;35.50;75.50
34434;DHT22;34290;48.562;13.384;2022-08-01T07:32:48;35.50;76.20
34434;DHT22;34290;48.562;13.384;2022-08-01T07:35:15;35.70;75.30
34434;DHT22;34290;48.562;13.384;2022-08-01T07:37:44;35.70;73.90
34434;DHT22;34290;48.562;13.384;2022-08-01T07:40:11;36.40;73.80
34434;DHT22;34290;48.562;13.384;2022-08-01T07:42:40;36.60;72.10
34434;DHT22;34290;48.562;13.384;2022-08-01T07:45:09;36.80;72.00
34434;DHT22;34290;48.562;13.384;2022-08-01T07:47:36;36.40;71.90
34434;DHT22;34290;48.562;13.384;2022-08-01T07:50:05;36.60;71.50
34434;DHT22;34290;48.562;13.384;2022-08-01T07:52:32;36.00;71.10
34434;DHT22;34290;48.562;13.384;2022-08-01T07:55:00;36.10;70.60
34434;DHT22;34290;48.562;13.384;2022-08-01T07:57:27;36.00;70.40
34434;DHT22;34290;48.562;13.384;2022-08-01T07:59:55;36.10;70.60
34434;DHT22;34290;48.562;13.384;2022-08-01T08:02:22;36.30;70.10
34434;DHT22;34290;48.562;13.384;2022-08-01T08:04:49;36.40;70.90
34434;DHT22;34290;48.562;13.384;2022-08-01T08:07:16;36.80;70.80
34434;DHT22;34290;48.562;13.384;2022-08-01T08:09:43;37.20;69.80
34434;DHT22;34290;48.562;13.384;2022-08-01T08:12:11;36.70;67.50
34434;DHT22;34290;48.562;13.384;2022-08-01T08:14:38;36.60;70.50
34434;DHT22;34290;48.562;13.384;2022-08-01T08:17:06;37.00;69.20
34434;DHT22;34290;48.562;13.384;2022-08-01T08:19:33;37.40;70.30
34434;DHT22;34290;48.562;13.384;2022-08-01T08:22:03;37.30;67.10
34434;DHT22;34290;48.562;13.384;2022-08-01T08:24:30;37.00;68.70
34434;DHT22;34290;48.562;13.384;2022-08-01T08:26:58;36.20;69.50
34434;DHT22;34290;48.562;13.384;2022-08-01T08:29:29;35.90;70.30
34434;DHT22;34290;48.562;13.384;2022-08-01T08:31:58;36.50;69.00
34434;DHT22;34290;48.562;13.384;2022-08-01T08:34:26;36.90;69.50
34434;DHT22;34290;48.562;13.384;2022-08-01T08:36:54;37.50;69.70
34434;DHT22;34290;48.562;13.384;2022-08-01T08:39:22;37.30;67.40
34434;DHT22;34290;48.562;13.384;2022-08-01T08:41:49;37.90;67.50
34434;DHT22;34290;48.562;13.384;2022-08-01T08:44:18;37.70;67.20
34434;DHT22;34290;48.562;13.384;2022-08-01T08:46:49;37.90;68.60
34434;DHT22;34290;48.562;13.384;2022-08-01T08:49:19;37.10;67.20
34434;DHT22;34290;48.562;13.384;2022-08-01T08:51:48;37.70;67.40
34434;DHT22;34290;48.562;13.384;2022-08-01T08:54:16;37.70;68.50
34434;DHT22;34290;48.562;13.384;2022-08-01T08:56:46;38.20;67.40
34434;DHT22;34290;48.562;13.384;2022-08-01T08:59:14;37.70;65.50
34434;DHT22;34290;48.562;13.384;2022-08-01T09:01:42;36.70;67.50
34434;DHT22;34290;48.562;13.384;2022-08-01T09:04:11;36.30;68.30
34434;DHT22;34290;48.562;13.384;2022-08-01T09:06:38;35.30;69.50
34434;DHT22;34290;48.562;13.384;2022-08-01T09:09:06;34.50;69.40
34434;DHT22;34290;48.562;13.384;2022-08-01T09:11:34;33.00;71.50
34434;DHT22;34290;48.562;13.384;2022-08-01T09:14:04;32.70;71.90
34434;DHT22;34290;48.562;13.384;2022-08-01T09:16:31;31.80;73.60
34434;DHT22;34290;48.562;13.384;2022-08-01T09:19:12;31.50;74.80
34434;DHT22;34290;48.562;13.384;2022-08-01T09:21:40;31.40;74.30
34434;DHT22;34290;48.562;13.384;2022-08-01T09:24:21;31.40;76.10
34434;DHT22;34290;48.562;13.384;2022-08-01T09:26:48;31.10;76.70
34434;DHT22;34290;48.562;13.384;2022-08-01T09:29:21;31.00;76.40
34434;DHT22;34290;48.562;13.384;2022-08-01T09:31:49;32.00;75.30
34434;DHT22;34290;48.562;13.384;2022-08-01T09:34:25;32.70;76.30
34434;DHT22;34290;48.562;13.384;2022-08-01T09:36:54;34.30;73.40
34434;DHT22;34290;48.562;13.384;2022-08-01T09:39:23;35.70;71.10
34434;DHT22;34290;48.562;13.384;2022-08-01T09:41:51;35.40;69.10
34434;DHT22;34290;48.562;13.384;2022-08-01T09:44:18;35.20;71.40
34434;DHT22;34290;48.562;13.384;2022-08-01T09:46:50;36.40;71.40
34434;DHT22;34290;48.562;13.384;2022-08-01T09:49:29;36.90;68.50
34434;DHT22;34290;48.562;13.384;2022-08-01T09:51:57;36.60;68.60
34434;DHT22;34290;48.562;13.384;2022-08-01T09:54:32;36.10;69.80
34434;DHT22;34290;48.562;13.384;2022-08-01T09:57:10;36.00;70.40
34434;DHT22;34290;48.562;13.384;2022-08-01T09:59:39;35.80;68.40
34434;DHT22;34290;48.562;13.384;2022-08-01T10:02:09;34.20;70.80
34434;DHT22;34290;48.562;13.384;2022-08-01T10:04:46;34.20;72.50
34434;DHT22;34290;48.562;13.384;2022-08-01T10:07:14;34.40;72.30
34434;DHT22;34290;48.562;13.384;2022-08-01T10:09:42;34.50;71.00
34434;DHT22;34290;48.562;13.384;2022-08-01T10:12:12;34.50;70.70
34434;DHT22;34290;48.562;13.384;2022-08-01T10:14:39;34.50;72.10
34434;DHT22;34290;48.562;13.384;2022-08-01T10:17:11;34.50;71.80
34434;DHT22;34290;48.562;13.384;2022-08-01T10:19:41;34.20;70.90
34434;DHT22;34290;48.562;13.384;2022-08-01T10:22:10;33.10;72.60
34434;DHT22;34290;48.562;13.384;2022-08-01T10:24:40;32.90;74.20
34434;DHT22;34290;48.562;13.384;2022-08-01T10:27:08;32.50;74.80
34434;DHT22;34290;48.562;13.384;2022-08-01T10:29:40;32.50;75.20
34434;DHT22;34290;48.562;13.384;2022-08-01T10:32:08;33.10;74.80
34434;DHT22;34290;48.562;13.384;2022-08-01T10:34:39;33.10;73.60
34434;DHT22;34290;48.562;13.384;2022-08-01T10:37:07;32.80;74.60
34434;DHT22;34290;48.562;13.384;2022-08-01T10:39:35;32.30;74.20
34434;DHT22;34290;48.562;13.384;2022-08-01T10:42:02;31.90;74.80
34434;DHT22;34290;48.562;13.384;2022-08-01T10:44:31;32.00;76.50
34434;DHT22;34290;48.562;13.384;2022-08-01T10:47:04;31.90;75.30
34434;DHT22;34290;48.562;13.384;2022-08-01T10:49:36;31.80;75.40
34434;DHT22;34290;48.562;13.384;2022-08-01T10:52:07;31.30;74.50
34434;DHT22;34290;48.562;13.384;2022-08-01T10:54:39;30.90;75.90
34434;DHT22;34290;48.562;13.384;2022-08-01T10:57:07;30.60;77.50
34434;DHT22;34290;48.562;13.384;2022-08-01T10:59:47;30.40;78.10
34434;DHT22;34290;48.562;13.384;2022-08-01T11:02:27;30.70;78.90
34434;DHT22;34290;48.562;13.384;2022-08-01T11:04:57;31.20;80.90
34434;DHT22;34290;48.562;13.384;2022-08-01T11:07:47;31.10;75.40
34434;DHT22;34290;48.562;13.384;2022-08-01T11:10:21;30.90;78.30
34434;DHT22;34290;48.562;13.384;2022-08-01T11:12:49;30.80;78.70
34434;DHT22;34290;48.562;13.384;2022-08-01T11:15:22;31.20;79.50
34434;DHT22;34290;48.562;13.384;2022-08-01T11:17:53;31.20;77.20
34434;DHT22;34290;48.562;13.384;2022-08-01T11:20:22;31.40;78.90
34434;DHT22;34290;48.562;13.384;2022-08-01T11:23:24;31.30;79.00
34434;DHT22;34290;48.562;13.384;2022-08-01T11:26:13;31.40;79.40
34434;DHT22;34290;48.562;13.384;2022-08-01T11:28:42;31.30;76.30
34434;DHT22;34290;48.562;13.384;2022-08-01T11:31:28;30.60;76.70
34434;DHT22;34290;48.562;13.384;2022-08-01T11:33:55;28.20;87.60
34434;DHT22;34290;48.562;13.384;2022-08-01T11:36:23;25.80;93.50
34434;DHT22;34290;48.562;13.384;2022-08-01T11:39:11;24.00;95.60
34434;DHT22;34290;48.562;13.384;2022-08-01T11:41:39;23.40;97.20
34434;DHT22;34290;48.562;13.384;2022-08-01T11:44:08;23.00;99.00
34434;DHT22;34290;48.562;13.384;2022-08-01T11:46:52;23.10;99.90
34434;DHT22;34290;48.562;13.384;2022-08-01T11:49:45;22.60;99.90
34434;DHT22;34290;48.562;13.384;2022-08-01T11:52:14;22.40;99.90
34434;DHT22;34290;48.562;13.384;2022-08-01T11:54:45;22.40;99.90
34434;DHT22;34290;48.562;13.384;2022-08-01T11:57:14;22.80;99.90
34434;DHT22;34290;48.562;13.384;2022-08-01T11:59:42;23.30;99.90
34434;DHT22;34290;48.562;13.384;2022-08-01T12:02:16;23.50;99.90
34434;DHT22;34290;48.562;13.384;2022-08-01T12:04:45;23.80;99.90
34434;DHT22;34290;48.562;13.384;2022-08-01T12:07:14;24.30;99.90
34434;DHT22;34290;48.562;13.384;2022-08-01T12:09:43;24.80;99.90
34434;DHT22;34290;48.562;13.384;2022-08-01T12:12:10;24.80;99.90
34434;DHT22;34290;48.562;13.384;2022-08-01T12:14:38;24.80;99.90
34434;DHT22;34290;48.562;13.384;2022-08-01T12:17:08;25.10;99.90
34434;DHT22;34290;48.562;13.384;2022-08-01T12:19:35;25.20;99.90
34434;DHT22;34290;48.562;13.384;2022-08-01T12:22:09;25.00;99.90
34434;DHT22;34290;48.562;13.384;2022-08-01T12:24:40;25.00;99.90
34434;DHT22;34290;48.562;13.384;2022-08-01T12:27:10;24.80;99.90
34434;DHT22;34290;48.562;13.384;2022-08-01T12:29:39;26.20;99.90
34434;DHT22;34290;48.562;13.384;2022-08-01T12:32:25;24.60;99.90
34434;DHT22;34290;48.562;13.384;2022-08-01T12:34:55;24.80;99.90
34434;DHT22;34290;48.562;13.384;2022-08-01T12:37:23;25.20;99.90
34434;DHT22;34290;48.562;13.384;2022-08-01T12:39:50;25.30;99.90
34434;DHT22;34290;48.562;13.384;2022-08-01T12:42:19;25.50;99.90
34434;DHT22;34290;48.562;13.384;2022-08-01T12:44:48;25.90;99.90
34434;DHT22;34290;48.562;13.384;2022-08-01T12:47:18;26.30;99.90
34434;DHT22;34290;48.562;13.384;2022-08-01T12:49:47;27.00;99.90
34434;DHT22;34290;48.562;13.384;2022-08-01T12:52:15;27.00;99.90
34434;DHT22;34290;48.562;13.384;2022-08-01T12:55:08;27.20;99.90
34434;DHT22;34290;48.562;13.384;2022-08-01T12:57:39;27.30;99.90
34434;DHT22;34290;48.562;13.384;2022-08-01T13:00:15;27.30;99.90
34434;DHT22;34290;48.562;13.384;2022-08-01T13:02:48;26.90;99.90
34434;DHT22;34290;48.562;13.384;2022-08-01T13:05:16;26.40;99.90
34434;DHT22;34290;48.562;13.384;2022-08-01T13:07:46;26.00;99.90
34434;DHT22;34290;48.562;13.384;2022-08-01T13:10:23;25.60;99.90
34434;DHT22;34290;48.562;13.384;2022-08-01T13:12:53;25.60;99.90
34434;DHT22;34290;48.562;13.384;2022-08-01T13:15:23;25.70;99.90
34434;DHT22;34290;48.562;13.384;2022-08-01T13:17:51;25.90;99.90
34434;DHT22;34290;48.562;13.384;2022-08-01T13:20:26;26.40;99.90
34434;DHT22;34290;48.562;13.384;2022-08-01T13:22:53;26.40;99.90
34434;DHT22;34290;48.562;13.384;2022-08-01T13:25:20;26.80;99.90
34434;DHT22;34290;48.562;13.384;2022-08-01T13:27:47;27.10;99.90
34434;DHT22;34290;48.562;13.384;2022-08-01T13:32:56;27.30;98.90
34434;DHT22;34290;48.562;13.384;2022-08-01T13:35:25;27.60;99.50
34434;DHT22;34290;48.562;13.384;2022-08-01T13:37:52;27.60;98.50
34434;DHT22;34290;48.562;13.384;2022-08-01T13:40:24;27.90;97.00
34434;DHT22;34290;48.562;13.384;2022-08-01T13:42:51;27.80;97.20
34434;DHT22;34290;48.562;13.384;2022-08-01T13:45:24;28.00;95.60
34434;DHT22;34290;48.562;13.384;2022-08-01T13:47:51;28.10;98.40
34434;DHT22;34290;48.562;13.384;2022-08-01T13:50:18;28.10;95.70
34434;DHT22;34290;48.562;13.384;2022-08-01T13:52:45;28.10;95.90
34434;DHT22;34290;48.562;13.384;2022-08-01T13:55:12;27.90;95.60
34434;DHT22;34290;48.562;13.384;2022-08-01T13:57:39;27.80;96.90
34434;DHT22;34290;48.562;13.384;2022-08-01T14:00:09;27.70;95.50
34434;DHT22;34290;48.562;13.384;2022-08-01T14:02:37;27.30;94.70
34434;DHT22;34290;48.562;13.384;2022-08-01T14:05:05;27.10;97.10
34434;DHT22;34290;48.562;13.384;2022-08-01T14:07:33;26.90;98.70
34434;DHT22;34290;48.562;13.384;2022-08-01T14:10:00;26.80;99.40
34434;DHT22;34290;48.562;13.384;2022-08-01T14:12:27;26.80;99.50
34434;DHT22;34290;48.562;13.384;2022-08-01T14:14:56;26.90;98.70
34434;DHT22;34290;48.562;13.384;2022-08-01T14:17:23;27.10;99.30
34434;DHT22;34290;48.562;13.384;2022-08-01T14:19:53;27.50;98.20
34434;DHT22;34290;48.562;13.384;2022-08-01T14:22:22;27.90;97.40
34434;DHT22;34290;48.562;13.384;2022-08-01T14:24:49;28.10;96.50
34434;DHT22;34290;48.562;13.384;2022-08-01T14:27:16;28.20;95.40
34434;DHT22;34290;48.562;13.384;2022-08-01T14:29:45;28.30;95.80
34434;DHT22;34290;48.562;13.384;2022-08-01T14:32:12;28.10;94.40
34434;DHT22;34290;48.562;13.384;2022-08-01T14:34:40;28.00;93.60
34434;DHT22;34290;48.562;13.384;2022-08-01T14:37:08;28.00;93.90
34434;DHT22;34290;48.562;13.384;2022-08-01T14:39:37;27.90;93.20
34434;DHT22;34290;48.562;13.384;2022-08-01T14:42:05;27.80;93.30
34434;DHT22;34290;48.562;13.384;2022-08-01T14:44:32;27.90;94.20
34434;DHT22;34290;48.562;13.384;2022-08-01T14:46:59;27.80;94.40
34434;DHT22;34290;48.562;13.384;2022-08-01T14:49:26;27.80;94.00
34434;DHT22;34290;48.562;13.384;2022-08-01T14:51:53;27.80;92.70
34434;DHT22;34290;48.562;13.384;2022-08-01T14:54:21;27.90;93.60
34434;DHT22;34290;48.562;13.384;2022-08-01T14:56:48;27.80;92.90
34434;DHT22;34290;48.562;13.384;2022-08-01T14:59:17;27.90;92.20
34434;DHT22;34290;48.562;13.384;2022-08-01T15:01:44;27.80;92.90
34434;DHT22;34290;48.562;13.384;2022-08-01T15:04:11;27.80;92.80
34434;DHT22;34290;48.562;13.384;2022-08-01T15:06:39;27.80;93.00
34434;DHT22;34290;48.562;13.384;2022-08-01T15:09:06;27.80;93.70
34434;DHT22;34290;48.562;13.384;2022-08-01T15:11:34;27.60;92.80
34434;DHT22;34290;48.562;13.384;2022-08-01T15:14:01;27.60;93.40
34434;DHT22;34290;48.562;13.384;2022-08-01T15:16:45;27.40;93.70
34434;DHT22;34290;48.562;13.384;2022-08-01T15:19:13;27.50;92.90
34434;DHT22;34290;48.562;13.384;2022-08-01T15:21:40;27.40;94.20
34434;DHT22;34290;48.562;13.384;2022-08-01T15:24:08;27.40;93.00
34434;DHT22;34290;48.562;13.384;2022-08-01T15:26:37;27.50;94.10
34434;DHT22;34290;48.562;13.384;2022-08-01T15:29:04;27.60;92.70
34434;DHT22;34290;48.562;13.384;2022-08-01T15:31:31;27.70;92.40
34434;DHT22;34290;48.562;13.384;2022-08-01T15:33:58;27.70;92.70